Pagina principală
METAR-TAF:

METAR-TAF

Aeroporturi :

Lifuka, Tonga

Latitudine: 19-46-36S, longitudine: 174-20-28W, elevație: 9 m

Observații meteo curente

Raportul a fost făcut în urmă cu 3 ore și 53 de minute, la 12:00 UTC
Vânt 2 kt din direcții variabile
Temperatură 24°C
Umiditate 100%
Presiune 1014 hPa
Vizibilitate de 10 km sau mai mult
Nori puțini la o înălțime de 1800 picior

METAR: NFTL 211200Z VRB02KT 9999 FEW018 24/24 Q1014 RMK GRASS DEW

Ora: 04:53 (15:53 UTC)


TAF: lipsă

Observații și prognoze meteo pentru peste 4.000 de aeroporturi (rapoarte METAR și TAF).

Stațiile disponibile sunt reprezentate pe hartă prin puncte galbene și roșii.

Țineți indicatorul mouse-ului pe punctul dorit pentru a vedea denumirea stației.

Apoi, faceți clic pentru a vedea observațiile și prognozele meteorologice.

Pentru a schimba harta: Pentru mărire, faceți clic pe butoanele verzi cu cruce neagră; pentru micșorare, pe butonul verde cu o liniuță; pentru hărți învecinate, pe săgețile verzi.


METAR-TAF: